Time;durP1;ratioP1;P1;durP2;ratioP2;P2;SDS_P1;SDS_P2;PMS_P1;PMS_P2;Temp;Humidity;BMP_temperature;BMP_pressure;BME280_temperature;BME280_humidity;BME280_pressure;Samples;Min_cycle;Max_cycle;Signal;HPM_P1;HPM_P2
2021/10/31 00:03:32;;;;;;;22.63;13.05;;;;;;;11.44;72.95;100094.45;713845;1200;114771;-74
2021/10/31 00:18:35;;;;;;;20.88;12.83;;;;;;;11.29;74.09;100093.27;713860;1176;114166;-73
2021/10/31 00:33:38;;;;;;;25.00;13.40;;;;;;;11.15;74.33;100092.77;713978;1177;114344;-73
2021/10/31 00:48:41;;;;;;;24.30;13.07;;;;;;;11.05;74.82;100089.34;713873;1203;114282;-73
2021/10/31 01:03:45;;;;;;;26.58;15.18;;;;;;;10.95;75.23;100089.39;714145;1177;114902;-73
2021/10/31 01:19:01;;;;;;;25.65;14.18;;;;;;;10.77;75.83;100091.91;713983;1203;114471;-74
2021/10/31 01:34:19;;;;;;;27.48;13.88;;;;;;;10.59;76.41;100085.72;713820;1202;114674;-75
2021/10/31 01:49:31;;;;;;;24.53;13.20;;;;;;;10.44;77.87;100080.09;714422;1181;113831;-72
2021/10/31 02:04:36;;;;;;;26.75;13.23;;;;;;;10.37;78.82;100090.28;714592;1200;114636;-74
2021/10/31 02:19:41;;;;;;;25.05;13.40;;;;;;;10.19;79.56;100110.25;713877;1185;113976;-73
2021/10/31 02:34:43;;;;;;;21.47;13.80;;;;;;;9.94;81.14;100099.34;715157;1202;115614;-73
2021/10/31 02:49:45;;;;;;;23.90;13.80;;;;;;;9.80;81.47;100100.55;714150;1202;114333;-75
2021/10/31 03:05:08;;;;;;;19.95;11.73;;;;;;;9.63;82.23;100110.73;713734;1205;113754;-73
2021/10/31 03:20:10;;;;;;;23.20;13.30;;;;;;;9.63;82.08;100129.06;713730;1202;114749;-73
2021/10/31 03:35:13;;;;;;;21.43;12.15;;;;;;;9.56;84.15;100125.30;713921;1178;113800;-73
2021/10/31 03:50:17;;;;;;;22.40;11.28;;;;;;;9.56;83.01;100148.87;714060;1201;116820;-74
2021/10/31 04:05:20;;;;;;;21.03;11.23;;;;;;;9.46;83.93;100148.84;713757;1202;115635;-74
2021/10/31 04:20:22;;;;;;;22.97;12.37;;;;;;;9.48;84.47;100170.47;714093;1206;114249;-74
2021/10/31 04:35:24;;;;;;;22.73;12.00;;;;;;;9.44;85.77;100170.88;713854;1203;114464;-73
2021/10/31 04:50:26;;;;;;;22.63;12.70;;;;;;;9.48;85.53;100183.56;713815;1204;114471;-73
2021/10/31 05:05:31;;;;;;;19.28;11.05;;;;;;;9.39;85.27;100188.77;713939;1177;114056;-75
2021/10/31 05:20:34;;;;;;;22.33;11.77;;;;;;;9.43;86.45;100169.21;714180;1176;113728;-73
2021/10/31 05:35:36;;;;;;;24.20;12.80;;;;;;;9.43;86.76;100185.74;714338;1177;113824;-71
2021/10/31 05:50:40;;;;;;;21.05;12.53;;;;;;;9.43;87.85;100196.22;714395;1202;114958;-70
2021/10/31 06:05:44;;;;;;;23.23;12.73;;;;;;;9.42;87.42;100198.97;714047;1205;114245;-71
2021/10/31 06:20:47;;;;;;;25.13;13.50;;;;;;;9.61;88.36;100206.11;714567;1177;113802;-75
2021/10/31 06:35:50;;;;;;;22.83;13.70;;;;;;;10.14;87.76;100229.45;714772;1181;114147;-74
2021/10/31 06:50:54;;;;;;;25.80;13.78;;;;;;;10.31;87.49;100243.71;714192;1202;114847;-74
2021/10/31 07:05:56;;;;;;;30.13;14.63;;;;;;;10.56;86.75;100253.89;714217;1203;114687;-74
2021/10/31 07:21:00;;;;;;;24.10;13.10;;;;;;;11.24;86.11;100269.62;714543;1205;114814;-73
2021/10/31 07:36:03;;;;;;;26.07;15.27;;;;;;;11.76;85.19;100271.88;714633;1202;114136;-73
2021/10/31 07:51:05;;;;;;;25.97;16.50;;;;;;;12.70;82.68;100287.66;714268;1170;114784;-74
2021/10/31 08:06:08;;;;;;;23.58;16.43;;;;;;;13.48;79.53;100281.76;714658;1200;115054;-73
2021/10/31 08:21:10;;;;;;;28.50;19.58;;;;;;;14.04;78.05;100276.98;714685;1200;114144;-74
2021/10/31 08:36:14;;;;;;;26.33;18.68;;;;;;;14.60;77.18;100279.14;714717;1200;115317;-74
2021/10/31 08:51:19;;;;;;;21.63;13.47;;;;;;;15.28;74.83;100270.14;715100;1195;114986;-70
2021/10/31 09:06:24;;;;;;;21.95;13.55;;;;;;;15.86;72.85;100280.63;714947;1204;114765;-70
2021/10/31 09:21:28;;;;;;;21.95;13.30;;;;;;;16.36;71.36;100283.91;714647;1200;114095;-71
2021/10/31 09:36:35;;;;;;;30.30;18.03;;;;;;;17.55;70.16;100288.88;714736;1205;115893;-71
2021/10/31 09:51:40;;;;;;;24.83;15.78;;;;;;;17.95;67.11;100276.20;714393;1201;114524;-74
2021/10/31 10:06:51;;;;;;;17.98;12.78;;;;;;;18.25;65.74;100275.33;714891;1177;116071;-74
2021/10/31 10:22:09;;;;;;;19.78;13.25;;;;;;;19.12;64.51;100286.88;714879;1177;114180;-73
2021/10/31 10:37:22;;;;;;;18.33;12.60;;;;;;;18.88;63.33;100270.28;714900;1183;115755;-73
2021/10/31 10:52:42;;;;;;;23.73;14.30;;;;;;;19.63;63.59;100257.39;714428;1203;114216;-74
2021/10/31 11:07:49;;;;;;;20.98;13.53;;;;;;;20.49;61.82;100250.00;714217;1177;114045;-73
2021/10/31 11:22:57;;;;;;;19.33;12.03;;;;;;;20.44;61.13;100242.63;714786;1176;114500;-74
2021/10/31 11:38:09;;;;;;;24.05;16.65;;;;;;;20.09;60.80;100225.92;715311;1202;113447;-73
2021/10/31 11:53:19;;;;;;;22.43;13.47;;;;;;;20.25;60.42;100222.08;714653;1200;114680;-73
2021/10/31 12:08:47;;;;;;;21.95;14.15;;;;;;;20.11;60.53;100215.88;714905;1200;114222;-70
2021/10/31 12:23:58;;;;;;;29.23;17.28;;;;;;;21.50;60.14;100197.52;715792;1200;114069;-74
2021/10/31 12:54:34;;;;;;;24.50;12.23;;;;;;;23.53;57.55;100183.45;714590;1202;114688;-74
2021/10/31 13:09:38;;;;;;;16.23;11.05;;;;;;;29.41;50.71;100171.09;714292;1200;115727;-74
2021/10/31 13:24:46;;;;;;;16.40;11.57;;;;;;;31.20;46.94;100158.81;714185;1206;114579;-75
2021/10/31 13:40:10;;;;;;;19.80;13.00;;;;;;;30.11;46.25;100176.98;713848;1203;114865;-76
2021/10/31 13:55:15;;;;;;;21.83;13.50;;;;;;;29.80;46.78;100189.59;714278;1203;114116;-75
2021/10/31 14:10:20;;;;;;;23.53;17.45;;;;;;;28.28;47.31;100177.28;714878;1200;114696;-76
2021/10/31 14:25:26;;;;;;;48.63;29.75;;;;;;;24.06;50.96;100187.36;715072;1202;114779;-76
2021/10/31 14:40:28;;;;;;;54.10;30.30;;;;;;;21.53;55.13;100182.94;714380;1201;114767;-76
2021/10/31 14:55:31;;;;;;;42.17;27.67;;;;;;;20.09;57.81;100180.66;714537;1202;115811;-76
2021/10/31 15:10:33;;;;;;;74.30;35.98;;;;;;;18.36;59.98;100181.13;714472;1203;115275;-74
2021/10/31 15:25:35;;;;;;;35.35;22.60;;;;;;;16.70;63.66;100176.78;714122;1182;114172;-75
2021/10/31 15:40:38;;;;;;;65.80;36.83;;;;;;;15.86;66.00;100174.01;714184;1200;114321;-75
2021/10/31 15:55:43;;;;;;;68.75;33.40;;;;;;;15.39;68.17;100165.89;713927;1205;114127;-74
2021/10/31 16:10:46;;;;;;;45.07;25.03;;;;;;;15.02;69.82;100167.30;714126;1177;114020;-76
2021/10/31 16:25:50;;;;;;;91.47;39.17;;;;;;;14.75;71.10;100171.09;714677;1177;114102;-74
2021/10/31 16:40:52;;;;;;;41.73;24.30;;;;;;;14.37;72.88;100158.36;714030;1203;114360;-76
2021/10/31 16:55:57;;;;;;;54.45;27.78;;;;;;;14.14;74.14;100163.41;714339;1180;114209;-77
2021/10/31 17:11:02;;;;;;;94.00;41.95;;;;;;;13.91;74.01;100160.53;714411;1202;114750;-76
2021/10/31 17:26:25;;;;;;;58.15;25.40;;;;;;;13.62;75.93;100146.77;714308;1179;114163;-76
2021/10/31 17:41:28;;;;;;;102.33;40.13;;;;;;;13.39;75.42;100151.75;714223;1202;114226;-73
2021/10/31 17:56:30;;;;;;;37.18;21.83;;;;;;;12.96;76.27;100127.13;714376;1177;114341;-73
2021/10/31 18:11:32;;;;;;;42.65;21.95;;;;;;;12.74;77.33;100108.21;714441;1177;114368;-74
2021/10/31 18:26:35;;;;;;;40.18;25.03;;;;;;;12.75;77.81;100101.16;715159;1200;114971;-73
2021/10/31 18:41:37;;;;;;;57.40;26.17;;;;;;;12.81;77.54;100098.73;714427;1187;115684;-74
2021/10/31 18:56:41;;;;;;;35.85;20.40;;;;;;;12.59;77.78;100093.95;714222;1177;113447;-73
2021/10/31 19:11:43;;;;;;;119.00;42.80;;;;;;;12.45;77.69;100077.73;715285;1179;114493;-74
2021/10/31 19:26:49;;;;;;;78.28;33.43;;;;;;;12.13;78.50;100063.34;715397;1206;115413;-73
2021/10/31 19:41:54;;;;;;;78.47;32.47;;;;;;;11.79;79.57;100039.49;714901;1203;114105;-74
2021/10/31 19:56:56;;;;;;;53.27;26.20;;;;;;;11.77;80.20;100028.29;714590;1205;114473;-72
2021/10/31 20:11:59;;;;;;;36.63;19.33;;;;;;;11.73;80.45;100008.55;714561;1177;114241;-74
2021/10/31 20:27:02;;;;;;;33.27;19.63;;;;;;;11.73;80.32;99998.88;714906;1205;114336;-72
2021/10/31 20:42:08;;;;;;;30.40;16.65;;;;;;;11.59;80.18;99999.39;714305;1188;114024;-73
2021/10/31 20:57:11;;;;;;;41.95;19.45;;;;;;;11.45;80.20;99995.46;714337;1200;114696;-75
2021/10/31 21:12:16;;;;;;;59.37;25.83;;;;;;;11.17;80.52;99981.54;714405;1206;113817;-73
2021/10/31 21:27:18;;;;;;;45.75;23.35;;;;;;;11.05;81.93;99963.34;715045;1200;114174;-74
2021/10/31 21:42:21;;;;;;;48.38;23.33;;;;;;;10.87;82.32;99939.67;714974;1200;114503;-75
2021/10/31 21:57:24;;;;;;;36.37;19.97;;;;;;;10.56;83.46;99926.02;714681;1177;113998;-73
2021/10/31 22:12:26;;;;;;;46.48;23.00;;;;;;;10.49;84.05;99902.13;714486;1200;113942;-73
2021/10/31 22:27:28;;;;;;;37.13;19.83;;;;;;;10.30;85.11;99890.72;714525;1200;114951;-73
2021/10/31 22:42:31;;;;;;;37.83;20.60;;;;;;;10.16;87.37;99880.69;714142;1200;114095;-74
2021/10/31 22:57:33;;;;;;;34.20;20.65;;;;;;;10.07;88.17;99865.81;714172;1200;114491;-72
2021/10/31 23:12:35;;;;;;;42.70;23.48;;;;;;;9.90;89.25;99862.16;714203;1202;114140;-74
2021/10/31 23:27:38;;;;;;;40.93;21.60;;;;;;;9.79;90.40;99840.38;713805;1176;113059;-74
2021/10/31 23:42:40;;;;;;;35.83;21.93;;;;;;;9.79;90.93;99819.42;713997;1200;114314;-74
2021/10/31 23:57:44;;;;;;;39.20;22.28;;;;;;;9.74;91.07;99815.55;713898;1205;114390;-74
